sensor_id;sensor_type;location;lat;lon;timestamp;P1;durP1;ratioP1;P2;durP2;ratioP2
44838;SDS011;30576;42.098;24.876;2023-07-13T00:00:38;3.88;;;2.33;;
44838;SDS011;30576;42.098;24.876;2023-07-13T00:03:03;4.55;;;2.88;;
44838;SDS011;30576;42.098;24.876;2023-07-13T00:05:29;5.82;;;3.33;;
44838;SDS011;30576;42.098;24.876;2023-07-13T00:07:56;5.05;;;2.40;;
44838;SDS011;30576;42.098;24.876;2023-07-13T00:10:22;7.13;;;3.80;;
44838;SDS011;30576;42.098;24.876;2023-07-13T00:12:47;4.50;;;2.63;;
44838;SDS011;30576;42.098;24.876;2023-07-13T00:15:14;6.30;;;2.75;;
44838;SDS011;30576;42.098;24.876;2023-07-13T00:17:50;4.97;;;2.63;;
44838;SDS011;30576;42.098;24.876;2023-07-13T00:20:17;4.20;;;2.42;;
44838;SDS011;30576;42.098;24.876;2023-07-13T00:22:43;5.13;;;2.50;;
44838;SDS011;30576;42.098;24.876;2023-07-13T00:25:10;4.05;;;2.58;;
44838;SDS011;30576;42.098;24.876;2023-07-13T00:27:36;5.45;;;2.47;;
44838;SDS011;30576;42.098;24.876;2023-07-13T00:30:02;4.20;;;3.28;;
44838;SDS011;30576;42.098;24.876;2023-07-13T00:32:27;4.38;;;2.65;;
44838;SDS011;30576;42.098;24.876;2023-07-13T00:34:54;6.00;;;3.63;;
44838;SDS011;30576;42.098;24.876;2023-07-13T00:37:19;4.88;;;2.40;;
44838;SDS011;30576;42.098;24.876;2023-07-13T00:39:45;5.07;;;2.95;;
44838;SDS011;30576;42.098;24.876;2023-07-13T00:42:10;4.22;;;2.70;;
44838;SDS011;30576;42.098;24.876;2023-07-13T00:44:36;10.75;;;3.00;;
44838;SDS011;30576;42.098;24.876;2023-07-13T00:47:02;9.88;;;3.58;;
44838;SDS011;30576;42.098;24.876;2023-07-13T00:49:28;3.55;;;2.30;;
44838;SDS011;30576;42.098;24.876;2023-07-13T00:51:57;5.25;;;2.80;;
44838;SDS011;30576;42.098;24.876;2023-07-13T00:54:29;4.90;;;3.03;;
44838;SDS011;30576;42.098;24.876;2023-07-13T00:56:59;3.90;;;2.40;;
44838;SDS011;30576;42.098;24.876;2023-07-13T00:59:30;7.07;;;2.55;;
44838;SDS011;30576;42.098;24.876;2023-07-13T01:01:56;9.05;;;4.05;;
44838;SDS011;30576;42.098;24.876;2023-07-13T01:04:25;6.75;;;3.03;;
44838;SDS011;30576;42.098;24.876;2023-07-13T01:06:51;7.25;;;3.63;;
44838;SDS011;30576;42.098;24.876;2023-07-13T01:09:17;9.25;;;3.33;;
44838;SDS011;30576;42.098;24.876;2023-07-13T01:11:43;2.85;;;1.85;;
44838;SDS011;30576;42.098;24.876;2023-07-13T01:14:10;5.45;;;3.85;;
44838;SDS011;30576;42.098;24.876;2023-07-13T01:16:36;6.93;;;3.08;;
44838;SDS011;30576;42.098;24.876;2023-07-13T01:19:09;6.75;;;3.63;;
44838;SDS011;30576;42.098;24.876;2023-07-13T01:21:49;4.65;;;3.47;;
44838;SDS011;30576;42.098;24.876;2023-07-13T01:24:16;8.07;;;2.67;;
44838;SDS011;30576;42.098;24.876;2023-07-13T01:26:41;7.82;;;3.42;;
44838;SDS011;30576;42.098;24.876;2023-07-13T01:29:07;5.13;;;3.65;;
44838;SDS011;30576;42.098;24.876;2023-07-13T01:31:33;6.97;;;4.07;;
44838;SDS011;30576;42.098;24.876;2023-07-13T01:33:58;5.70;;;2.63;;
44838;SDS011;30576;42.098;24.876;2023-07-13T01:36:24;4.03;;;2.88;;
44838;SDS011;30576;42.098;24.876;2023-07-13T01:38:49;10.48;;;3.15;;
44838;SDS011;30576;42.098;24.876;2023-07-13T01:41:15;24.00;;;4.03;;
44838;SDS011;30576;42.098;24.876;2023-07-13T01:43:40;7.95;;;3.72;;
44838;SDS011;30576;42.098;24.876;2023-07-13T01:46:06;5.57;;;2.83;;
44838;SDS011;30576;42.098;24.876;2023-07-13T01:48:31;12.00;;;3.47;;
44838;SDS011;30576;42.098;24.876;2023-07-13T01:50:56;5.55;;;3.60;;
44838;SDS011;30576;42.098;24.876;2023-07-13T01:53:22;5.78;;;3.17;;
44838;SDS011;30576;42.098;24.876;2023-07-13T01:55:47;7.22;;;2.78;;
44838;SDS011;30576;42.098;24.876;2023-07-13T01:58:13;7.35;;;4.55;;
44838;SDS011;30576;42.098;24.876;2023-07-13T02:00:38;5.72;;;3.60;;
44838;SDS011;30576;42.098;24.876;2023-07-13T02:03:04;4.55;;;2.85;;
44838;SDS011;30576;42.098;24.876;2023-07-13T02:05:29;4.72;;;3.35;;
44838;SDS011;30576;42.098;24.876;2023-07-13T02:07:54;7.50;;;4.70;;
44838;SDS011;30576;42.098;24.876;2023-07-13T02:10:20;5.78;;;3.38;;
44838;SDS011;30576;42.098;24.876;2023-07-13T02:12:45;6.15;;;3.15;;
44838;SDS011;30576;42.098;24.876;2023-07-13T02:15:13;4.97;;;3.15;;
44838;SDS011;30576;42.098;24.876;2023-07-13T02:17:39;8.90;;;3.65;;
44838;SDS011;30576;42.098;24.876;2023-07-13T02:20:04;7.65;;;4.00;;
44838;SDS011;30576;42.098;24.876;2023-07-13T02:22:30;4.30;;;3.15;;
44838;SDS011;30576;42.098;24.876;2023-07-13T02:24:56;6.95;;;3.30;;
44838;SDS011;30576;42.098;24.876;2023-07-13T02:27:21;4.25;;;3.55;;
44838;SDS011;30576;42.098;24.876;2023-07-13T02:29:47;7.22;;;3.45;;
44838;SDS011;30576;42.098;24.876;2023-07-13T02:32:12;9.65;;;4.07;;
44838;SDS011;30576;42.098;24.876;2023-07-13T02:34:38;3.38;;;2.10;;
44838;SDS011;30576;42.098;24.876;2023-07-13T02:37:03;6.13;;;3.78;;
44838;SDS011;30576;42.098;24.876;2023-07-13T02:39:29;8.18;;;3.55;;
44838;SDS011;30576;42.098;24.876;2023-07-13T02:41:57;5.57;;;3.50;;
44838;SDS011;30576;42.098;24.876;2023-07-13T02:44:24;6.43;;;3.60;;
44838;SDS011;30576;42.098;24.876;2023-07-13T02:46:49;6.18;;;3.80;;
44838;SDS011;30576;42.098;24.876;2023-07-13T02:49:15;5.70;;;3.22;;
44838;SDS011;30576;42.098;24.876;2023-07-13T02:51:40;7.53;;;3.67;;
44838;SDS011;30576;42.098;24.876;2023-07-13T02:54:05;6.25;;;4.63;;
44838;SDS011;30576;42.098;24.876;2023-07-13T02:56:33;6.18;;;3.60;;
44838;SDS011;30576;42.098;24.876;2023-07-13T02:58:59;4.82;;;2.58;;
44838;SDS011;30576;42.098;24.876;2023-07-13T03:01:24;7.13;;;4.30;;
44838;SDS011;30576;42.098;24.876;2023-07-13T03:03:51;8.15;;;4.95;;
44838;SDS011;30576;42.098;24.876;2023-07-13T03:06:17;4.32;;;3.05;;
44838;SDS011;30576;42.098;24.876;2023-07-13T03:08:43;7.30;;;4.32;;
44838;SDS011;30576;42.098;24.876;2023-07-13T03:11:14;4.60;;;2.63;;
44838;SDS011;30576;42.098;24.876;2023-07-13T03:13:41;6.82;;;3.60;;
44838;SDS011;30576;42.098;24.876;2023-07-13T03:16:08;6.88;;;4.22;;
44838;SDS011;30576;42.098;24.876;2023-07-13T03:18:35;4.43;;;3.15;;
44838;SDS011;30576;42.098;24.876;2023-07-13T03:21:01;10.60;;;5.43;;
44838;SDS011;30576;42.098;24.876;2023-07-13T03:23:27;7.00;;;3.75;;
44838;SDS011;30576;42.098;24.876;2023-07-13T03:28:38;3.90;;;2.92;;
44838;SDS011;30576;42.098;24.876;2023-07-13T03:31:05;7.47;;;3.92;;
44838;SDS011;30576;42.098;24.876;2023-07-13T03:33:33;7.35;;;4.53;;
44838;SDS011;30576;42.098;24.876;2023-07-13T03:35:58;7.28;;;4.03;;
44838;SDS011;30576;42.098;24.876;2023-07-13T03:38:24;6.30;;;3.25;;
44838;SDS011;30576;42.098;24.876;2023-07-13T03:40:51;6.63;;;3.05;;
44838;SDS011;30576;42.098;24.876;2023-07-13T03:43:17;5.80;;;3.40;;
44838;SDS011;30576;42.098;24.876;2023-07-13T03:45:43;5.38;;;3.20;;
44838;SDS011;30576;42.098;24.876;2023-07-13T03:48:08;5.65;;;3.72;;
44838;SDS011;30576;42.098;24.876;2023-07-13T03:50:34;11.68;;;4.05;;
44838;SDS011;30576;42.098;24.876;2023-07-13T03:53:00;8.40;;;4.60;;
44838;SDS011;30576;42.098;24.876;2023-07-13T03:55:25;7.53;;;3.97;;
44838;SDS011;30576;42.098;24.876;2023-07-13T03:57:53;9.45;;;4.38;;
44838;SDS011;30576;42.098;24.876;2023-07-13T04:00:22;8.32;;;4.30;;
44838;SDS011;30576;42.098;24.876;2023-07-13T04:02:48;9.25;;;4.63;;
44838;SDS011;30576;42.098;24.876;2023-07-13T04:05:14;8.55;;;5.30;;
44838;SDS011;30576;42.098;24.876;2023-07-13T04:07:40;6.32;;;4.13;;
44838;SDS011;30576;42.098;24.876;2023-07-13T04:10:06;5.22;;;3.13;;
44838;SDS011;30576;42.098;24.876;2023-07-13T04:12:31;6.60;;;4.57;;
44838;SDS011;30576;42.098;24.876;2023-07-13T04:14:57;7.80;;;4.30;;
44838;SDS011;30576;42.098;24.876;2023-07-13T04:17:22;6.70;;;4.22;;
44838;SDS011;30576;42.098;24.876;2023-07-13T04:19:48;8.35;;;4.25;;
44838;SDS011;30576;42.098;24.876;2023-07-13T04:22:14;9.23;;;4.95;;
44838;SDS011;30576;42.098;24.876;2023-07-13T04:24:39;11.18;;;5.70;;
44838;SDS011;30576;42.098;24.876;2023-07-13T04:27:05;8.18;;;5.13;;
44838;SDS011;30576;42.098;24.876;2023-07-13T04:29:31;8.20;;;4.63;;
44838;SDS011;30576;42.098;24.876;2023-07-13T04:31:57;8.55;;;5.05;;
44838;SDS011;30576;42.098;24.876;2023-07-13T04:34:22;7.07;;;4.93;;
44838;SDS011;30576;42.098;24.876;2023-07-13T04:36:49;9.40;;;4.30;;
44838;SDS011;30576;42.098;24.876;2023-07-13T04:39:15;12.38;;;4.80;;
44838;SDS011;30576;42.098;24.876;2023-07-13T04:41:40;6.40;;;3.58;;
44838;SDS011;30576;42.098;24.876;2023-07-13T04:44:06;9.02;;;5.00;;
44838;SDS011;30576;42.098;24.876;2023-07-13T04:46:31;6.70;;;4.38;;
44838;SDS011;30576;42.098;24.876;2023-07-13T04:48:56;9.18;;;6.25;;
44838;SDS011;30576;42.098;24.876;2023-07-13T04:51:23;7.20;;;4.53;;
44838;SDS011;30576;42.098;24.876;2023-07-13T04:53:49;8.98;;;5.75;;
44838;SDS011;30576;42.098;24.876;2023-07-13T04:56:14;14.40;;;3.70;;
44838;SDS011;30576;42.098;24.876;2023-07-13T04:58:40;5.43;;;3.47;;
44838;SDS011;30576;42.098;24.876;2023-07-13T05:01:05;9.63;;;4.68;;
44838;SDS011;30576;42.098;24.876;2023-07-13T05:03:31;7.75;;;4.82;;
44838;SDS011;30576;42.098;24.876;2023-07-13T05:05:58;7.47;;;3.55;;
44838;SDS011;30576;42.098;24.876;2023-07-13T05:08:31;6.00;;;3.90;;
44838;SDS011;30576;42.098;24.876;2023-07-13T05:10:59;12.68;;;3.67;;
44838;SDS011;30576;42.098;24.876;2023-07-13T05:13:25;6.15;;;3.72;;
44838;SDS011;30576;42.098;24.876;2023-07-13T05:15:58;5.32;;;3.88;;
44838;SDS011;30576;42.098;24.876;2023-07-13T05:18:25;9.95;;;4.82;;
44838;SDS011;30576;42.098;24.876;2023-07-13T05:20:58;5.00;;;3.38;;
44838;SDS011;30576;42.098;24.876;2023-07-13T05:23:25;3.65;;;3.00;;
44838;SDS011;30576;42.098;24.876;2023-07-13T05:25:51;8.90;;;3.28;;
44838;SDS011;30576;42.098;24.876;2023-07-13T05:28:16;6.18;;;3.67;;
44838;SDS011;30576;42.098;24.876;2023-07-13T05:30:45;6.20;;;3.63;;
44838;SDS011;30576;42.098;24.876;2023-07-13T05:33:11;5.68;;;3.25;;
44838;SDS011;30576;42.098;24.876;2023-07-13T05:35:37;6.85;;;3.65;;
44838;SDS011;30576;42.098;24.876;2023-07-13T05:38:02;12.05;;;3.92;;
44838;SDS011;30576;42.098;24.876;2023-07-13T05:40:28;5.88;;;3.85;;
44838;SDS011;30576;42.098;24.876;2023-07-13T05:42:53;5.78;;;3.50;;
44838;SDS011;30576;42.098;24.876;2023-07-13T05:45:19;3.28;;;2.55;;
44838;SDS011;30576;42.098;24.876;2023-07-13T05:47:44;5.75;;;4.10;;
44838;SDS011;30576;42.098;24.876;2023-07-13T05:50:09;7.55;;;3.97;;
44838;SDS011;30576;42.098;24.876;2023-07-13T05:52:35;4.00;;;3.15;;
44838;SDS011;30576;42.098;24.876;2023-07-13T05:55:00;9.52;;;4.43;;
44838;SDS011;30576;42.098;24.876;2023-07-13T05:57:26;5.00;;;3.38;;
44838;SDS011;30576;42.098;24.876;2023-07-13T05:59:51;5.88;;;3.55;;
44838;SDS011;30576;42.098;24.876;2023-07-13T06:02:17;7.32;;;2.70;;
44838;SDS011;30576;42.098;24.876;2023-07-13T06:04:42;5.60;;;3.85;;
44838;SDS011;30576;42.098;24.876;2023-07-13T06:07:08;10.57;;;4.53;;
44838;SDS011;30576;42.098;24.876;2023-07-13T06:09:33;6.90;;;4.30;;
44838;SDS011;30576;42.098;24.876;2023-07-13T06:11:58;6.03;;;3.97;;
44838;SDS011;30576;42.098;24.876;2023-07-13T06:14:24;6.05;;;3.88;;
44838;SDS011;30576;42.098;24.876;2023-07-13T06:16:50;17.02;;;4.15;;
44838;SDS011;30576;42.098;24.876;2023-07-13T06:19:15;6.40;;;3.55;;
44838;SDS011;30576;42.098;24.876;2023-07-13T06:21:41;17.52;;;5.93;;
44838;SDS011;30576;42.098;24.876;2023-07-13T06:24:06;5.60;;;3.60;;
44838;SDS011;30576;42.098;24.876;2023-07-13T06:26:32;5.60;;;2.97;;
44838;SDS011;30576;42.098;24.876;2023-07-13T06:28:57;9.43;;;4.95;;
44838;SDS011;30576;42.098;24.876;2023-07-13T06:31:22;5.13;;;3.67;;
44838;SDS011;30576;42.098;24.876;2023-07-13T06:33:48;9.57;;;4.80;;
44838;SDS011;30576;42.098;24.876;2023-07-13T06:36:13;7.63;;;3.47;;
44838;SDS011;30576;42.098;24.876;2023-07-13T06:38:39;5.93;;;3.10;;
44838;SDS011;30576;42.098;24.876;2023-07-13T06:41:05;6.45;;;3.92;;
44838;SDS011;30576;42.098;24.876;2023-07-13T06:43:32;12.27;;;4.78;;
44838;SDS011;30576;42.098;24.876;2023-07-13T06:45:58;5.10;;;2.78;;
44838;SDS011;30576;42.098;24.876;2023-07-13T06:48:23;10.00;;;4.07;;
44838;SDS011;30576;42.098;24.876;2023-07-13T06:50:49;9.52;;;4.28;;
44838;SDS011;30576;42.098;24.876;2023-07-13T06:53:17;4.88;;;3.17;;
44838;SDS011;30576;42.098;24.876;2023-07-13T06:55:43;10.18;;;3.78;;
44838;SDS011;30576;42.098;24.876;2023-07-13T06:58:09;5.18;;;3.47;;
44838;SDS011;30576;42.098;24.876;2023-07-13T07:00:34;7.70;;;3.72;;
44838;SDS011;30576;42.098;24.876;2023-07-13T07:03:00;6.80;;;3.50;;
44838;SDS011;30576;42.098;24.876;2023-07-13T07:05:25;8.00;;;4.50;;
44838;SDS011;30576;42.098;24.876;2023-07-13T07:07:51;6.60;;;4.28;;
44838;SDS011;30576;42.098;24.876;2023-07-13T07:10:19;5.75;;;3.80;;
44838;SDS011;30576;42.098;24.876;2023-07-13T07:12:45;8.52;;;4.10;;
44838;SDS011;30576;42.098;24.876;2023-07-13T07:15:11;5.25;;;2.83;;
44838;SDS011;30576;42.098;24.876;2023-07-13T07:17:37;5.55;;;3.60;;
44838;SDS011;30576;42.098;24.876;2023-07-13T07:20:02;13.77;;;3.95;;
44838;SDS011;30576;42.098;24.876;2023-07-13T07:22:29;6.63;;;2.88;;
44838;SDS011;30576;42.098;24.876;2023-07-13T07:24:55;7.05;;;3.65;;
44838;SDS011;30576;42.098;24.876;2023-07-13T07:27:21;6.38;;;3.75;;
44838;SDS011;30576;42.098;24.876;2023-07-13T07:29:47;8.00;;;3.72;;
44838;SDS011;30576;42.098;24.876;2023-07-13T07:32:12;8.40;;;4.25;;
44838;SDS011;30576;42.098;24.876;2023-07-13T07:34:38;7.18;;;3.72;;
44838;SDS011;30576;42.098;24.876;2023-07-13T07:37:03;9.63;;;3.13;;
44838;SDS011;30576;42.098;24.876;2023-07-13T07:39:29;6.95;;;3.38;;
44838;SDS011;30576;42.098;24.876;2023-07-13T07:41:55;7.60;;;4.35;;
44838;SDS011;30576;42.098;24.876;2023-07-13T07:44:20;5.85;;;3.50;;
44838;SDS011;30576;42.098;24.876;2023-07-13T07:46:46;4.70;;;2.92;;
44838;SDS011;30576;42.098;24.876;2023-07-13T07:49:11;6.05;;;3.63;;
44838;SDS011;30576;42.098;24.876;2023-07-13T07:51:37;9.85;;;3.70;;
44838;SDS011;30576;42.098;24.876;2023-07-13T07:54:03;5.47;;;2.85;;
44838;SDS011;30576;42.098;24.876;2023-07-13T07:56:29;6.10;;;3.88;;
44838;SDS011;30576;42.098;24.876;2023-07-13T07:58:55;4.30;;;2.95;;
44838;SDS011;30576;42.098;24.876;2023-07-13T08:01:20;9.50;;;3.47;;
44838;SDS011;30576;42.098;24.876;2023-07-13T08:03:46;6.07;;;3.60;;
44838;SDS011;30576;42.098;24.876;2023-07-13T08:06:11;13.10;;;3.63;;
44838;SDS011;30576;42.098;24.876;2023-07-13T08:08:37;4.22;;;3.00;;
44838;SDS011;30576;42.098;24.876;2023-07-13T08:11:06;8.13;;;3.55;;
44838;SDS011;30576;42.098;24.876;2023-07-13T08:13:33;5.18;;;3.35;;
44838;SDS011;30576;42.098;24.876;2023-07-13T08:15:58;4.68;;;3.05;;
44838;SDS011;30576;42.098;24.876;2023-07-13T08:18:24;4.65;;;3.30;;
44838;SDS011;30576;42.098;24.876;2023-07-13T08:20:50;7.70;;;3.17;;
44838;SDS011;30576;42.098;24.876;2023-07-13T08:23:15;10.90;;;3.55;;
44838;SDS011;30576;42.098;24.876;2023-07-13T08:25:41;6.07;;;3.75;;
44838;SDS011;30576;42.098;24.876;2023-07-13T08:28:07;5.07;;;3.42;;
44838;SDS011;30576;42.098;24.876;2023-07-13T08:30:33;5.47;;;4.03;;
44838;SDS011;30576;42.098;24.876;2023-07-13T08:32:58;6.55;;;3.20;;
44838;SDS011;30576;42.098;24.876;2023-07-13T08:35:24;5.80;;;3.28;;
44838;SDS011;30576;42.098;24.876;2023-07-13T08:37:51;6.15;;;3.15;;
44838;SDS011;30576;42.098;24.876;2023-07-13T08:40:17;8.18;;;3.58;;
44838;SDS011;30576;42.098;24.876;2023-07-13T08:42:55;4.60;;;2.88;;
44838;SDS011;30576;42.098;24.876;2023-07-13T08:47:56;4.18;;;2.65;;
44838;SDS011;30576;42.098;24.876;2023-07-13T08:50:35;4.93;;;3.50;;
44838;SDS011;30576;42.098;24.876;2023-07-13T08:53:12;6.13;;;3.47;;
44838;SDS011;30576;42.098;24.876;2023-07-13T08:55:40;5.47;;;3.25;;
44838;SDS011;30576;42.098;24.876;2023-07-13T08:58:09;5.97;;;3.88;;
44838;SDS011;30576;42.098;24.876;2023-07-13T09:00:56;5.57;;;3.95;;
44838;SDS011;30576;42.098;24.876;2023-07-13T09:03:30;7.10;;;3.13;;
44838;SDS011;30576;42.098;24.876;2023-07-13T09:06:02;8.68;;;3.50;;
44838;SDS011;30576;42.098;24.876;2023-07-13T09:11:31;5.95;;;3.30;;
44838;SDS011;30576;42.098;24.876;2023-07-13T09:17:00;5.07;;;2.70;;
44838;SDS011;30576;42.098;24.876;2023-07-13T09:19:30;3.28;;;1.90;;
44838;SDS011;30576;42.098;24.876;2023-07-13T09:22:01;4.78;;;3.33;;
44838;SDS011;30576;42.098;24.876;2023-07-13T09:27:33;4.18;;;2.92;;
44838;SDS011;30576;42.098;24.876;2023-07-13T09:32:39;5.97;;;3.60;;
44838;SDS011;30576;42.098;24.876;2023-07-13T09:35:11;3.90;;;2.58;;
44838;SDS011;30576;42.098;24.876;2023-07-13T09:37:40;4.53;;;2.78;;
44838;SDS011;30576;42.098;24.876;2023-07-13T09:40:35;5.60;;;3.80;;
44838;SDS011;30576;42.098;24.876;2023-07-13T09:43:02;7.15;;;3.05;;
44838;SDS011;30576;42.098;24.876;2023-07-13T09:45:32;3.92;;;2.58;;
44838;SDS011;30576;42.098;24.876;2023-07-13T09:48:02;5.45;;;3.08;;
44838;SDS011;30576;42.098;24.876;2023-07-13T09:50:30;6.45;;;3.42;;
44838;SDS011;30576;42.098;24.876;2023-07-13T09:52:55;6.15;;;2.90;;
44838;SDS011;30576;42.098;24.876;2023-07-13T09:55:25;13.18;;;3.35;;
44838;SDS011;30576;42.098;24.876;2023-07-13T09:57:53;4.80;;;2.83;;
44838;SDS011;30576;42.098;24.876;2023-07-13T10:00:26;5.50;;;2.92;;
44838;SDS011;30576;42.098;24.876;2023-07-13T10:03:01;5.03;;;2.58;;
44838;SDS011;30576;42.098;24.876;2023-07-13T10:05:36;3.63;;;2.17;;
44838;SDS011;30576;42.098;24.876;2023-07-13T10:08:11;3.90;;;2.15;;
44838;SDS011;30576;42.098;24.876;2023-07-13T10:10:41;3.42;;;1.90;;
44838;SDS011;30576;42.098;24.876;2023-07-13T10:13:20;2.70;;;1.90;;
44838;SDS011;30576;42.098;24.876;2023-07-13T10:15:55;3.08;;;1.98;;
44838;SDS011;30576;42.098;24.876;2023-07-13T10:18:21;9.15;;;3.30;;
44838;SDS011;30576;42.098;24.876;2023-07-13T10:20:50;6.03;;;2.67;;
44838;SDS011;30576;42.098;24.876;2023-07-13T10:23:38;3.95;;;2.03;;
44838;SDS011;30576;42.098;24.876;2023-07-13T10:26:04;3.80;;;2.33;;
44838;SDS011;30576;42.098;24.876;2023-07-13T10:28:37;3.97;;;2.65;;
44838;SDS011;30576;42.098;24.876;2023-07-13T10:31:04;3.08;;;1.90;;
44838;SDS011;30576;42.098;24.876;2023-07-13T10:33:36;4.78;;;2.83;;
44838;SDS011;30576;42.098;24.876;2023-07-13T10:38:45;4.20;;;1.90;;
44838;SDS011;30576;42.098;24.876;2023-07-13T10:41:15;8.60;;;2.22;;
44838;SDS011;30576;42.098;24.876;2023-07-13T10:43:45;2.90;;;2.10;;
44838;SDS011;30576;42.098;24.876;2023-07-13T10:46:16;2.53;;;1.58;;
44838;SDS011;30576;42.098;24.876;2023-07-13T10:48:44;4.32;;;2.13;;
44838;SDS011;30576;42.098;24.876;2023-07-13T10:51:14;4.30;;;2.22;;
44838;SDS011;30576;42.098;24.876;2023-07-13T10:53:42;2.53;;;2.08;;
44838;SDS011;30576;42.098;24.876;2023-07-13T10:56:27;2.38;;;1.83;;
44838;SDS011;30576;42.098;24.876;2023-07-13T11:01:39;3.88;;;2.08;;
44838;SDS011;30576;42.098;24.876;2023-07-13T11:04:18;4.35;;;2.35;;
44838;SDS011;30576;42.098;24.876;2023-07-13T11:06:46;4.13;;;2.17;;
44838;SDS011;30576;42.098;24.876;2023-07-13T11:09:35;3.83;;;2.60;;
44838;SDS011;30576;42.098;24.876;2023-07-13T11:17:24;3.97;;;2.13;;
44838;SDS011;30576;42.098;24.876;2023-07-13T11:19:50;3.50;;;1.88;;
44838;SDS011;30576;42.098;24.876;2023-07-13T11:22:21;4.70;;;2.88;;
44838;SDS011;30576;42.098;24.876;2023-07-13T11:24:54;2.72;;;1.88;;
44838;SDS011;30576;42.098;24.876;2023-07-13T11:27:43;6.88;;;3.67;;
44838;SDS011;30576;42.098;24.876;2023-07-13T11:30:22;2.00;;;1.48;;
44838;SDS011;30576;42.098;24.876;2023-07-13T11:32:51;5.60;;;3.05;;
44838;SDS011;30576;42.098;24.876;2023-07-13T11:35:31;5.05;;;2.65;;
44838;SDS011;30576;42.098;24.876;2023-07-13T11:38:01;4.25;;;1.95;;
44838;SDS011;30576;42.098;24.876;2023-07-13T11:40:27;4.68;;;2.22;;
44838;SDS011;30576;42.098;24.876;2023-07-13T11:42:59;6.07;;;4.22;;
44838;SDS011;30576;42.098;24.876;2023-07-13T11:45:26;2.60;;;1.80;;
44838;SDS011;30576;42.098;24.876;2023-07-13T11:47:53;4.95;;;2.67;;
44838;SDS011;30576;42.098;24.876;2023-07-13T11:50:20;2.65;;;1.70;;
44838;SDS011;30576;42.098;24.876;2023-07-13T11:52:48;4.68;;;2.97;;
44838;SDS011;30576;42.098;24.876;2023-07-13T11:55:16;4.20;;;2.33;;
44838;SDS011;30576;42.098;24.876;2023-07-13T11:57:57;3.15;;;1.90;;
44838;SDS011;30576;42.098;24.876;2023-07-13T12:00:28;4.30;;;2.70;;
44838;SDS011;30576;42.098;24.876;2023-07-13T12:02:57;6.13;;;2.00;;
44838;SDS011;30576;42.098;24.876;2023-07-13T12:05:25;3.42;;;2.20;;
44838;SDS011;30576;42.098;24.876;2023-07-13T12:07:52;8.13;;;2.35;;
44838;SDS011;30576;42.098;24.876;2023-07-13T12:12:55;6.53;;;2.13;;
44838;SDS011;30576;42.098;24.876;2023-07-13T12:15:22;2.58;;;1.90;;
44838;SDS011;30576;42.098;24.876;2023-07-13T12:17:49;8.82;;;2.67;;
44838;SDS011;30576;42.098;24.876;2023-07-13T12:20:23;5.80;;;2.60;;
44838;SDS011;30576;42.098;24.876;2023-07-13T12:22:51;2.95;;;2.00;;
44838;SDS011;30576;42.098;24.876;2023-07-13T12:25:18;4.00;;;1.95;;
44838;SDS011;30576;42.098;24.876;2023-07-13T12:27:48;4.57;;;3.28;;
44838;SDS011;30576;42.098;24.876;2023-07-13T12:30:28;2.85;;;2.13;;
44838;SDS011;30576;42.098;24.876;2023-07-13T12:33:07;2.47;;;1.58;;
44838;SDS011;30576;42.098;24.876;2023-07-13T12:35:41;2.72;;;1.83;;
44838;SDS011;30576;42.098;24.876;2023-07-13T12:38:15;2.72;;;1.55;;
44838;SDS011;30576;42.098;24.876;2023-07-13T12:40:41;2.67;;;1.50;;
44838;SDS011;30576;42.098;24.876;2023-07-13T12:43:13;2.95;;;1.27;;
44838;SDS011;30576;42.098;24.876;2023-07-13T12:45:39;2.08;;;1.20;;
44838;SDS011;30576;42.098;24.876;2023-07-13T12:48:23;5.60;;;2.90;;
44838;SDS011;30576;42.098;24.876;2023-07-13T12:50:50;4.18;;;2.33;;
44838;SDS011;30576;42.098;24.876;2023-07-13T12:53:17;4.93;;;2.28;;
44838;SDS011;30576;42.098;24.876;2023-07-13T12:55:46;3.20;;;2.08;;
44838;SDS011;30576;42.098;24.876;2023-07-13T12:58:27;4.05;;;2.50;;
44838;SDS011;30576;42.098;24.876;2023-07-13T13:01:00;2.92;;;1.85;;
44838;SDS011;30576;42.098;24.876;2023-07-13T13:03:31;7.47;;;2.40;;
44838;SDS011;30576;42.098;24.876;2023-07-13T13:06:03;3.95;;;2.45;;
44838;SDS011;30576;42.098;24.876;2023-07-13T13:08:32;3.92;;;2.28;;
44838;SDS011;30576;42.098;24.876;2023-07-13T13:11:02;11.63;;;2.42;;
44838;SDS011;30576;42.098;24.876;2023-07-13T13:13:27;5.78;;;2.50;;
44838;SDS011;30576;42.098;24.876;2023-07-13T13:15:53;7.63;;;1.95;;
44838;SDS011;30576;42.098;24.876;2023-07-13T13:18:19;5.30;;;2.13;;
44838;SDS011;30576;42.098;24.876;2023-07-13T13:20:48;3.45;;;2.05;;
44838;SDS011;30576;42.098;24.876;2023-07-13T13:23:16;4.45;;;2.35;;
44838;SDS011;30576;42.098;24.876;2023-07-13T13:25:47;2.40;;;1.85;;
44838;SDS011;30576;42.098;24.876;2023-07-13T13:28:18;1.98;;;1.67;;
44838;SDS011;30576;42.098;24.876;2023-07-13T13:30:46;5.13;;;3.53;;
44838;SDS011;30576;42.098;24.876;2023-07-13T13:33:16;2.70;;;2.10;;
44838;SDS011;30576;42.098;24.876;2023-07-13T13:35:44;4.43;;;2.30;;
44838;SDS011;30576;42.098;24.876;2023-07-13T13:38:11;6.15;;;1.88;;
44838;SDS011;30576;42.098;24.876;2023-07-13T13:40:39;3.60;;;1.58;;
44838;SDS011;30576;42.098;24.876;2023-07-13T13:43:09;4.03;;;1.60;;
44838;SDS011;30576;42.098;24.876;2023-07-13T13:45:41;3.22;;;1.98;;
44838;SDS011;30576;42.098;24.876;2023-07-13T13:48:07;4.07;;;2.35;;
44838;SDS011;30576;42.098;24.876;2023-07-13T13:50:45;7.07;;;2.75;;
44838;SDS011;30576;42.098;24.876;2023-07-13T13:53:12;4.15;;;1.92;;
44838;SDS011;30576;42.098;24.876;2023-07-13T13:55:38;2.85;;;1.83;;
44838;SDS011;30576;42.098;24.876;2023-07-13T13:58:06;4.80;;;2.40;;
44838;SDS011;30576;42.098;24.876;2023-07-13T14:00:35;3.33;;;1.83;;
44838;SDS011;30576;42.098;24.876;2023-07-13T14:03:04;3.97;;;2.35;;
44838;SDS011;30576;42.098;24.876;2023-07-13T14:05:31;3.22;;;1.88;;
44838;SDS011;30576;42.098;24.876;2023-07-13T14:07:57;3.58;;;1.65;;
44838;SDS011;30576;42.098;24.876;2023-07-13T14:10:23;4.20;;;2.20;;
44838;SDS011;30576;42.098;24.876;2023-07-13T14:12:50;8.18;;;2.70;;
44838;SDS011;30576;42.098;24.876;2023-07-13T14:15:25;3.30;;;1.85;;
44838;SDS011;30576;42.098;24.876;2023-07-13T14:17:53;4.72;;;2.72;;
44838;SDS011;30576;42.098;24.876;2023-07-13T14:20:20;2.88;;;1.55;;
44838;SDS011;30576;42.098;24.876;2023-07-13T14:22:50;4.45;;;2.20;;
44838;SDS011;30576;42.098;24.876;2023-07-13T14:25:17;4.97;;;2.22;;
44838;SDS011;30576;42.098;24.876;2023-07-13T14:27:44;5.38;;;2.10;;
44838;SDS011;30576;42.098;24.876;2023-07-13T14:30:12;4.25;;;1.85;;
44838;SDS011;30576;42.098;24.876;2023-07-13T14:32:39;3.75;;;2.00;;
44838;SDS011;30576;42.098;24.876;2023-07-13T14:35:04;7.22;;;2.13;;
44838;SDS011;30576;42.098;24.876;2023-07-13T14:37:31;5.28;;;2.22;;
44838;SDS011;30576;42.098;24.876;2023-07-13T14:39:56;3.00;;;1.45;;
44838;SDS011;30576;42.098;24.876;2023-07-13T14:42:22;6.97;;;1.40;;
44838;SDS011;30576;42.098;24.876;2023-07-13T14:44:47;2.65;;;1.70;;
44838;SDS011;30576;42.098;24.876;2023-07-13T14:47:13;3.47;;;1.52;;
44838;SDS011;30576;42.098;24.876;2023-07-13T14:49:42;2.70;;;2.25;;
44838;SDS011;30576;42.098;24.876;2023-07-13T14:54:45;7.50;;;2.75;;
44838;SDS011;30576;42.098;24.876;2023-07-13T14:57:11;11.93;;;2.97;;
44838;SDS011;30576;42.098;24.876;2023-07-13T14:59:39;2.13;;;1.35;;
44838;SDS011;30576;42.098;24.876;2023-07-13T15:02:14;10.18;;;3.00;;
44838;SDS011;30576;42.098;24.876;2023-07-13T15:04:42;3.97;;;2.15;;
44838;SDS011;30576;42.098;24.876;2023-07-13T15:07:09;2.17;;;1.52;;
44838;SDS011;30576;42.098;24.876;2023-07-13T15:09:36;4.00;;;2.53;;